Time;durP1;ratioP1;P1;durP2;ratioP2;P2;SDS_P1;SDS_P2;PMS_P1;PMS_P2;Temp;Humidity;BMP_temperature;BMP_pressure;BME280_temperature;BME280_humidity;BME280_pressure;Samples;Min_cycle;Max_cycle;Signal;HPM_P1;HPM_P2
2023/09/08 00:02:25;;;;;;;7.95;6.18;;;20.80;99.90;;;;;;5092337;28;20579;-44
2023/09/08 00:04:51;;;;;;;10.40;6.00;;;20.90;99.90;;;;;;5092821;28;20593;-44
2023/09/08 00:07:16;;;;;;;9.10;5.70;;;20.80;99.90;;;;;;5092876;28;20165;-46
2023/09/08 00:09:42;;;;;;;9.13;6.00;;;20.80;99.90;;;;;;5092514;28;20536;-44
2023/09/08 00:12:08;;;;;;;15.48;5.40;;;20.80;99.90;;;;;;5092542;28;20571;-44
2023/09/08 00:14:34;;;;;;;6.78;5.60;;;;;;;;;;5092449;28;20244;-48
2023/09/08 00:16:59;;;;;;;8.35;5.72;;;20.70;99.90;;;;;;5092551;28;20165;-44
2023/09/08 00:19:25;;;;;;;6.68;5.63;;;20.60;99.90;;;;;;5092441;28;20568;-44
2023/09/08 00:21:50;;;;;;;6.93;5.63;;;20.60;99.90;;;;;;5092768;28;20173;-44
2023/09/08 00:24:17;;;;;;;6.78;5.32;;;20.70;99.90;;;;;;5092217;28;20626;-44
2023/09/08 00:26:43;;;;;;;6.60;5.13;;;20.70;99.90;;;;;;5092534;28;20235;-50
2023/09/08 00:29:08;;;;;;;9.10;5.95;;;20.60;99.90;;;;;;5092296;28;20169;-47
2023/09/08 00:31:34;;;;;;;6.35;5.35;;;20.60;99.90;;;;;;5092180;28;20248;-50
2023/09/08 00:34:00;;;;;;;7.57;5.30;;;20.60;99.90;;;;;;5091781;28;20184;-49
2023/09/08 00:36:25;;;;;;;12.15;5.07;;;20.60;99.90;;;;;;5092340;28;20161;-49
2023/09/08 00:38:51;;;;;;;8.15;5.32;;;20.60;99.90;;;;;;5092471;28;20165;-50
2023/09/08 00:41:16;;;;;;;6.43;4.93;;;20.60;99.90;;;;;;5090658;28;20173;-50
2023/09/08 00:43:42;;;;;;;6.00;4.75;;;20.70;99.90;;;;;;5091837;28;20216;-48
2023/09/08 00:46:08;;;;;;;7.13;5.03;;;20.70;99.90;;;;;;5091756;28;20213;-49
2023/09/08 00:48:34;;;;;;;6.45;4.80;;;20.70;99.90;;;;;;5091901;28;20179;-50
2023/09/08 00:51:01;;;;;;;7.90;4.55;;;20.60;99.90;;;;;;5091878;28;20162;-50
2023/09/08 00:53:26;;;;;;;6.63;4.85;;;20.60;99.90;;;;;;5091811;28;20165;-50
2023/09/08 00:55:52;;;;;;;6.30;4.88;;;20.60;99.90;;;;;;5091723;28;20208;-48
2023/09/08 00:58:18;;;;;;;7.57;4.50;;;20.50;99.90;;;;;;5092274;28;20161;-48
2023/09/08 01:00:44;;;;;;;7.53;5.00;;;20.50;99.90;;;;;;5091691;28;20580;-49
2023/09/08 01:03:11;;;;;;;5.15;4.60;;;20.50;99.90;;;;;;5091847;28;20208;-49
2023/09/08 01:05:37;;;;;;;5.78;4.55;;;20.50;99.90;;;;;;5091559;28;20248;-46
2023/09/08 01:08:04;;;;;;;7.78;4.93;;;20.50;99.90;;;;;;5091632;28;20201;-44
2023/09/08 01:10:29;;;;;;;8.50;4.38;;;20.50;99.90;;;;;;5091554;28;20161;-44
2023/09/08 01:12:55;;;;;;;7.57;5.07;;;20.50;99.90;;;;;;5091441;28;20168;-44
2023/09/08 01:15:20;;;;;;;7.47;5.28;;;20.50;99.90;;;;;;5091952;28;20252;-46
2023/09/08 01:17:46;;;;;;;7.18;5.05;;;20.50;99.90;;;;;;5091480;28;20180;-44
2023/09/08 01:20:21;;;;;;;5.75;4.47;;;20.50;99.90;;;;;;5091632;28;20173;-44
2023/09/08 01:23:05;;;;;;;8.02;5.60;;;20.50;99.90;;;;;;5091767;28;20189;-45
2023/09/08 01:25:35;;;;;;;7.93;5.00;;;20.50;99.90;;;;;;5091656;28;20173;-44
2023/09/08 01:28:03;;;;;;;7.85;5.18;;;20.40;99.90;;;;;;5091350;28;20162;-44
2023/09/08 01:30:32;;;;;;;7.53;5.78;;;20.50;99.90;;;;;;5091588;28;20169;-44
2023/09/08 01:32:59;;;;;;;6.10;5.47;;;20.40;99.90;;;;;;5091616;28;20622;-44
2023/09/08 01:35:24;;;;;;;8.35;6.00;;;20.40;99.90;;;;;;5089995;28;20184;-45
2023/09/08 01:37:50;;;;;;;7.40;5.25;;;20.40;99.90;;;;;;5090477;28;20210;-44
2023/09/08 01:40:16;;;;;;;9.13;5.63;;;20.40;99.90;;;;;;5091267;28;20169;-44
2023/09/08 01:42:42;;;;;;;6.43;5.72;;;20.40;99.90;;;;;;5091384;28;20208;-44
2023/09/08 01:45:08;;;;;;;8.88;6.38;;;20.30;99.90;;;;;;5092057;28;20576;-44
2023/09/08 01:47:34;;;;;;;12.40;6.65;;;20.30;99.90;;;;;;5095387;28;20173;-44
2023/09/08 01:50:00;;;;;;;8.73;6.97;;;20.30;99.90;;;;;;5095324;28;20165;-48
2023/09/08 01:52:26;;;;;;;10.32;6.57;;;;;;;;;;5095250;28;20230;-49
2023/09/08 01:54:52;;;;;;;8.60;6.10;;;20.20;99.90;;;;;;5095230;28;20166;-49
2023/09/08 01:57:18;;;;;;;7.75;6.72;;;20.20;99.90;;;;;;5094302;28;20176;-49
2023/09/08 01:59:44;;;;;;;10.85;6.97;;;20.20;99.90;;;;;;5095040;28;20248;-50
2023/09/08 02:02:10;;;;;;;11.73;7.40;;;20.20;99.90;;;;;;5095299;28;20252;-50
2023/09/08 02:04:36;;;;;;;9.18;6.97;;;20.20;99.90;;;;;;5094863;28;20212;-49
2023/09/08 02:07:03;;;;;;;11.88;7.40;;;20.20;99.90;;;;;;5094926;28;20165;-46
2023/09/08 02:09:37;;;;;;;10.82;7.38;;;20.10;99.90;;;;;;5095155;28;20231;-48
2023/09/08 02:12:03;;;;;;;9.70;7.20;;;;;;;;;;5094867;28;20165;-45
2023/09/08 02:14:29;;;;;;;13.07;7.90;;;20.10;99.90;;;;;;5094548;28;20165;-49
2023/09/08 02:16:56;;;;;;;12.45;8.32;;;20.10;99.90;;;;;;5094818;28;20180;-49
2023/09/08 02:19:22;;;;;;;9.55;8.05;;;;;;;;;;5094667;28;20645;-46
2023/09/08 02:21:47;;;;;;;12.50;8.50;;;19.90;99.90;;;;;;5095139;28;20169;-49
2023/09/08 02:24:13;;;;;;;8.80;7.60;;;19.90;99.90;;;;;;5094500;28;20197;-48
2023/09/08 02:26:40;;;;;;;10.30;6.60;;;19.90;99.90;;;;;;5094577;28;20169;-50
2023/09/08 02:29:05;;;;;;;7.35;6.53;;;19.90;99.90;;;;;;5094454;28;20165;-50
2023/09/08 02:31:31;;;;;;;8.65;6.68;;;20.00;99.90;;;;;;5094751;28;20181;-49
2023/09/08 02:33:57;;;;;;;7.65;6.70;;;;;;;;;;5094435;28;20169;-50
2023/09/08 02:36:26;;;;;;;12.15;6.82;;;19.90;99.90;;;;;;5094393;28;20169;-48
2023/09/08 02:38:52;;;;;;;12.70;7.80;;;;;;;;;;5094810;28;20170;-45
2023/09/08 02:41:18;;;;;;;10.82;7.60;;;19.90;99.90;;;;;;5094778;28;20185;-49
2023/09/08 02:43:43;;;;;;;8.60;7.20;;;19.80;99.90;;;;;;5094044;28;20201;-49
2023/09/08 02:46:09;;;;;;;10.05;7.60;;;19.80;99.90;;;;;;5094100;28;20217;-49
2023/09/08 02:48:35;;;;;;;9.40;7.60;;;19.80;99.90;;;;;;5094161;28;20173;-48
2023/09/08 02:51:01;;;;;;;9.35;7.85;;;19.80;99.90;;;;;;5094114;28;20162;-51
2023/09/08 02:53:28;;;;;;;13.68;8.40;;;19.80;99.90;;;;;;5094086;28;20223;-50
2023/09/08 02:55:54;;;;;;;12.93;9.20;;;19.70;99.90;;;;;;5094092;28;20166;-48
2023/09/08 02:58:20;;;;;;;9.77;8.55;;;19.70;99.90;;;;;;5094390;28;20197;-47
2023/09/08 03:00:46;;;;;;;13.80;9.52;;;19.70;99.90;;;;;;5093984;28;20657;-48
2023/09/08 03:03:11;;;;;;;10.63;8.70;;;19.70;99.90;;;;;;5093754;28;20201;-44
2023/09/08 03:05:37;;;;;;;10.13;8.80;;;19.70;99.90;;;;;;5093864;28;20248;-45
2023/09/08 03:08:03;;;;;;;11.48;9.40;;;19.70;99.90;;;;;;5093705;28;20158;-44
2023/09/08 03:10:28;;;;;;;11.23;8.77;;;19.60;99.90;;;;;;5094026;28;20177;-44
2023/09/08 03:12:54;;;;;;;9.68;8.68;;;19.60;99.90;;;;;;5093678;28;20204;-48
2023/09/08 03:15:20;;;;;;;12.20;9.63;;;19.60;99.90;;;;;;5094112;28;20168;-48
2023/09/08 03:17:46;;;;;;;13.40;9.32;;;19.60;99.90;;;;;;5093654;28;20204;-46
2023/09/08 03:20:13;;;;;;;14.68;9.50;;;19.50;99.90;;;;;;5093548;28;20188;-46
2023/09/08 03:22:38;;;;;;;10.48;8.73;;;19.50;99.90;;;;;;5093669;28;20181;-46
2023/09/08 03:25:05;;;;;;;10.02;8.98;;;19.50;99.90;;;;;;5093534;28;20173;-49
2023/09/08 03:27:30;;;;;;;14.57;9.27;;;19.50;99.90;;;;;;5093478;28;20638;-44
2023/09/08 03:29:56;;;;;;;14.35;9.35;;;19.50;99.90;;;;;;5093423;28;20173;-48
2023/09/08 03:32:22;;;;;;;11.38;9.38;;;;;;;;;;5093342;28;20172;-45
2023/09/08 03:34:47;;;;;;;10.98;9.48;;;19.40;99.90;;;;;;5093655;28;20161;-48
2023/09/08 03:37:13;;;;;;;12.93;9.50;;;19.40;99.90;;;;;;5093190;28;20534;-48
2023/09/08 03:39:38;;;;;;;10.27;8.95;;;19.30;99.90;;;;;;5091904;28;20169;-44
2023/09/08 03:42:04;;;;;;;12.55;8.77;;;;;;;;;;5093135;28;20176;-44
2023/09/08 03:44:29;;;;;;;13.35;9.50;;;19.20;99.90;;;;;;5093026;28;20216;-44
2023/09/08 03:46:55;;;;;;;11.38;10.18;;;19.20;99.90;;;;;;5093146;28;20165;-44
2023/09/08 03:49:21;;;;;;;14.48;10.32;;;;;;;;;;5093505;28;20173;-44
2023/09/08 03:51:47;;;;;;;11.15;10.05;;;19.20;99.90;;;;;;5093559;28;20173;-44
2023/09/08 03:54:12;;;;;;;20.73;10.50;;;19.20;99.90;;;;;;5092939;28;20170;-45
2023/09/08 03:56:38;;;;;;;11.32;9.52;;;19.20;99.90;;;;;;5092835;28;20557;-44
2023/09/08 03:59:04;;;;;;;14.80;10.45;;;;;;;;;;5093079;28;20535;-44
2023/09/08 04:01:29;;;;;;;14.32;10.27;;;19.20;99.90;;;;;;5092815;28;20685;-44
2023/09/08 04:03:55;;;;;;;12.00;10.07;;;19.20;99.90;;;;;;5092659;28;20201;-44
2023/09/08 04:06:20;;;;;;;12.18;10.55;;;19.20;99.90;;;;;;5093197;28;20176;-45
2023/09/08 04:08:46;;;;;;;14.88;10.23;;;19.20;99.90;;;;;;5091124;28;20172;-44
2023/09/08 04:11:11;;;;;;;12.73;10.30;;;19.20;99.90;;;;;;5092611;28;20618;-44
2023/09/08 04:13:37;;;;;;;12.65;10.82;;;19.20;99.90;;;;;;5091287;28;20670;-44
2023/09/08 04:16:02;;;;;;;13.25;10.73;;;19.10;99.90;;;;;;5092420;28;20248;-45
2023/09/08 04:18:28;;;;;;;13.52;10.80;;;19.10;99.90;;;;;;5092505;28;20287;-45
2023/09/08 04:20:53;;;;;;;19.33;11.30;;;19.10;99.90;;;;;;5092679;28;20165;-45
2023/09/08 04:23:19;;;;;;;14.20;11.57;;;19.10;99.90;;;;;;5092671;28;20642;-44
2023/09/08 04:25:45;;;;;;;13.93;10.88;;;19.10;99.90;;;;;;5092477;28;20529;-45
2023/09/08 04:28:11;;;;;;;14.40;11.27;;;19.10;99.90;;;;;;5092286;28;20172;-45
2023/09/08 04:30:37;;;;;;;13.80;11.00;;;19.00;99.90;;;;;;5092216;28;20169;-45
2023/09/08 04:33:02;;;;;;;13.05;11.20;;;19.00;99.90;;;;;;5092202;28;20245;-45
2023/09/08 04:35:28;;;;;;;14.10;11.05;;;19.00;99.90;;;;;;5092421;28;20251;-46
2023/09/08 04:37:53;;;;;;;13.55;11.95;;;19.00;99.90;;;;;;5092169;28;20248;-49
2023/09/08 04:40:19;;;;;;;13.23;11.25;;;19.00;99.90;;;;;;5092426;28;20170;-47
2023/09/08 04:42:45;;;;;;;17.85;12.55;;;19.00;99.90;;;;;;5091878;28;20193;-49
2023/09/08 04:45:10;;;;;;;20.75;13.80;;;19.00;99.90;;;;;;5091841;28;20747;-45
2023/09/08 04:47:37;;;;;;;14.63;12.60;;;19.00;99.90;;;;;;5092244;28;20185;-44
2023/09/08 04:50:03;;;;;;;14.18;11.45;;;19.00;99.90;;;;;;5091880;28;20657;-46
2023/09/08 04:52:29;;;;;;;14.25;12.70;;;19.00;99.90;;;;;;5092080;28;20170;-45
2023/09/08 04:54:55;;;;;;;17.05;12.38;;;;;;;;;;5091801;28;20177;-45
2023/09/08 04:57:20;;;;;;;19.20;13.77;;;18.90;99.90;;;;;;5092245;28;20165;-46
2023/09/08 04:59:46;;;;;;;14.13;12.45;;;18.90;99.90;;;;;;5092045;28;20244;-45
2023/09/08 05:02:11;;;;;;;23.42;13.70;;;18.90;99.90;;;;;;5091908;28;20168;-45
2023/09/08 05:04:37;;;;;;;15.02;12.43;;;18.80;99.90;;;;;;5091810;28;20205;-46
2023/09/08 05:07:02;;;;;;;15.02;12.30;;;18.80;99.90;;;;;;5091691;28;20685;-44
2023/09/08 05:09:28;;;;;;;14.25;12.27;;;;;;;;;;5091167;28;20226;-44
2023/09/08 05:11:54;;;;;;;17.55;11.50;;;18.80;99.90;;;;;;5090782;28;20165;-46
2023/09/08 05:14:19;;;;;;;13.80;11.30;;;18.80;99.90;;;;;;5092003;28;20161;-44
2023/09/08 05:16:46;;;;;;;11.88;10.63;;;18.90;99.90;;;;;;5091727;28;20172;-45
2023/09/08 05:19:15;;;;;;;11.93;9.80;;;18.70;99.90;;;;;;5090975;28;20712;-45
2023/09/08 05:21:43;;;;;;;12.75;8.88;;;18.80;99.90;;;;;;5091121;28;20173;-45
2023/09/08 05:24:09;;;;;;;12.10;9.02;;;18.80;99.90;;;;;;5091439;28;20246;-44
2023/09/08 05:26:36;;;;;;;13.15;9.55;;;18.80;99.90;;;;;;5091306;28;20161;-45
2023/09/08 05:29:02;;;;;;;12.40;8.55;;;18.80;99.90;;;;;;5091177;28;20165;-44
2023/09/08 05:31:28;;;;;;;11.40;7.68;;;18.80;99.90;;;;;;5091256;28;20224;-45
2023/09/08 05:33:54;;;;;;;10.52;7.30;;;;;;;;;;5091020;28;20200;-44
2023/09/08 05:36:19;;;;;;;9.90;7.97;;;18.80;99.90;;;;;;5091744;28;20169;-45
2023/09/08 05:38:45;;;;;;;11.30;8.60;;;18.80;99.90;;;;;;5091342;28;20248;-44
2023/09/08 05:41:10;;;;;;;13.73;8.02;;;18.70;99.90;;;;;;5091227;28;20193;-45
2023/09/08 05:43:36;;;;;;;11.45;7.28;;;18.80;99.90;;;;;;5091165;28;20217;-49
2023/09/08 05:46:02;;;;;;;13.52;8.35;;;18.80;99.90;;;;;;5091153;28;20231;-44
2023/09/08 05:48:27;;;;;;;9.20;7.82;;;18.90;99.90;;;;;;5091240;28;20172;-45
2023/09/08 05:50:53;;;;;;;13.45;8.50;;;18.90;99.90;;;;;;5091202;28;20631;-46
2023/09/08 05:53:18;;;;;;;12.80;8.40;;;19.00;99.90;;;;;;5091839;28;20253;-45
2023/09/08 05:55:44;;;;;;;14.98;8.93;;;19.00;99.90;;;;;;5091141;28;20188;-45
2023/09/08 05:58:10;;;;;;;10.43;8.93;;;19.10;99.90;;;;;;5091450;28;20624;-48
2023/09/08 06:00:36;;;;;;;14.15;8.90;;;19.00;99.90;;;;;;5091426;28;20226;-47
2023/09/08 06:03:02;;;;;;;11.55;8.55;;;;;;;;;;5090191;28;20213;-45
2023/09/08 06:05:28;;;;;;;13.40;8.20;;;19.10;99.90;;;;;;5091119;28;20533;-48
2023/09/08 06:07:53;;;;;;;10.25;8.45;;;19.20;99.90;;;;;;5091076;28;20165;-46
2023/09/08 06:10:19;;;;;;;11.75;9.52;;;19.30;99.90;;;;;;5091724;28;20261;-46
2023/09/08 06:12:44;;;;;;;14.68;8.77;;;19.30;99.90;;;;;;5090960;28;20166;-49
2023/09/08 06:15:10;;;;;;;13.18;8.88;;;19.30;99.90;;;;;;5091034;28;20627;-50
2023/09/08 06:17:35;;;;;;;14.57;9.75;;;19.40;99.90;;;;;;5091002;28;20205;-49
2023/09/08 06:20:01;;;;;;;14.05;8.68;;;19.50;99.90;;;;;;5090997;28;20177;-50
2023/09/08 06:22:27;;;;;;;11.75;9.05;;;19.50;99.90;;;;;;5091015;28;20177;-50
2023/09/08 06:24:53;;;;;;;10.50;8.07;;;19.60;99.90;;;;;;5090937;28;20180;-49
2023/09/08 06:27:18;;;;;;;11.20;7.97;;;19.60;99.90;;;;;;5091337;28;20715;-48
2023/09/08 06:29:44;;;;;;;13.48;7.78;;;19.60;99.90;;;;;;5090887;28;20578;-50
2023/09/08 06:32:10;;;;;;;12.63;8.30;;;19.90;99.90;;;;;;5093280;28;20585;-49
2023/09/08 06:34:36;;;;;;;14.13;7.32;;;20.00;99.90;;;;;;5094426;28;20207;-49
2023/09/08 06:37:02;;;;;;;11.60;8.18;;;20.00;99.90;;;;;;5094338;28;20177;-49
2023/09/08 06:39:27;;;;;;;13.57;7.55;;;20.00;99.90;;;;;;5094395;28;20176;-48
2023/09/08 06:41:53;;;;;;;11.63;7.22;;;20.10;99.90;;;;;;5094639;28;20636;-50
2023/09/08 06:44:22;;;;;;;11.55;8.43;;;20.20;99.90;;;;;;5094452;28;20217;-49
2023/09/08 06:46:48;;;;;;;13.68;7.63;;;20.30;99.90;;;;;;5094733;28;20165;-49
2023/09/08 06:49:13;;;;;;;11.27;7.07;;;20.40;99.90;;;;;;5094092;28;20168;-48
2023/09/08 06:51:39;;;;;;;12.38;7.65;;;20.40;99.90;;;;;;5094128;28;20215;-45
2023/09/08 06:54:05;;;;;;;14.05;7.53;;;20.50;99.90;;;;;;5094312;28;20223;-45
2023/09/08 06:56:30;;;;;;;9.15;6.85;;;20.60;99.90;;;;;;5094041;28;20532;-45
2023/09/08 06:58:57;;;;;;;12.40;7.45;;;20.70;99.90;;;;;;5094274;28;20162;-45
2023/09/08 07:01:23;;;;;;;10.27;7.20;;;20.70;99.90;;;;;;5094207;28;20238;-44
2023/09/08 07:03:49;;;;;;;9.13;6.97;;;20.80;99.90;;;;;;5094137;28;20193;-45
2023/09/08 07:06:15;;;;;;;12.18;7.88;;;21.00;99.90;;;;;;5094083;28;20176;-45
2023/09/08 07:08:41;;;;;;;15.10;7.65;;;21.00;99.90;;;;;;5093819;28;20267;-44
2023/09/08 07:11:06;;;;;;;12.35;7.30;;;21.20;99.90;;;;;;5093747;28;20224;-44
2023/09/08 07:13:32;;;;;;;15.13;8.05;;;21.20;99.90;;;;;;5093984;28;20184;-46
2023/09/08 07:15:57;;;;;;;11.55;7.28;;;21.30;99.90;;;;;;5093712;28;20161;-44
2023/09/08 07:18:23;;;;;;;10.88;7.28;;;21.40;99.90;;;;;;5093540;28;20196;-45
2023/09/08 07:20:49;;;;;;;9.73;7.03;;;21.40;99.90;;;;;;5094254;28;20629;-44
2023/09/08 07:23:17;;;;;;;9.77;7.05;;;21.60;99.90;;;;;;5094085;28;20197;-51
2023/09/08 07:25:48;;;;;;;14.80;7.35;;;21.80;99.90;;;;;;5093535;28;20161;-49
2023/09/08 07:28:15;;;;;;;12.02;7.90;;;21.80;99.90;;;;;;5093482;28;20259;-50
2023/09/08 07:30:41;;;;;;;12.48;8.07;;;21.80;99.90;;;;;;5093393;28;20168;-50
2023/09/08 07:33:07;;;;;;;8.32;7.10;;;;;;;;;;5093340;28;20165;-50
2023/09/08 07:35:32;;;;;;;10.10;7.20;;;22.00;99.90;;;;;;5093395;28;20165;-50
2023/09/08 07:37:58;;;;;;;8.55;6.88;;;22.00;99.90;;;;;;5093255;28;20171;-50
2023/09/08 07:40:23;;;;;;;12.70;7.10;;;22.10;99.90;;;;;;5093237;28;20169;-50
2023/09/08 07:42:50;;;;;;;10.90;7.35;;;;;;;;;;5092483;28;20169;-49
2023/09/08 07:45:15;;;;;;;9.43;6.82;;;22.20;99.90;;;;;;5093439;28;20213;-50
2023/09/08 07:47:41;;;;;;;9.88;7.18;;;22.30;99.90;;;;;;5093015;28;20175;-50
2023/09/08 07:50:24;;;;;;;9.90;6.90;;;22.50;99.90;;;;;;5093015;28;20157;-50
2023/09/08 07:52:52;;;;;;;11.70;7.75;;;22.60;99.90;;;;;;5092931;28;20218;-46
2023/09/08 07:55:19;;;;;;;10.70;7.25;;;22.70;99.90;;;;;;5093562;28;20180;-49
2023/09/08 07:57:48;;;;;;;8.77;6.57;;;22.80;99.90;;;;;;5092901;28;20222;-50
2023/09/08 08:00:15;;;;;;;13.43;7.63;;;22.80;99.90;;;;;;5092808;28;20157;-50
2023/09/08 08:02:46;;;;;;;8.98;7.47;;;22.90;99.90;;;;;;5092883;28;20176;-49
2023/09/08 08:05:12;;;;;;;9.77;7.63;;;23.00;99.90;;;;;;5092683;28;20606;-50
2023/09/08 08:07:38;;;;;;;11.00;7.28;;;23.20;99.90;;;;;;5092722;28;20253;-49
2023/09/08 08:10:05;;;;;;;9.30;7.57;;;23.30;99.90;;;;;;5092599;28;20180;-49
2023/09/08 08:12:30;;;;;;;12.80;7.63;;;23.40;99.90;;;;;;5092617;28;20218;-50
2023/09/08 08:14:58;;;;;;;13.25;7.60;;;;;;;;;;5096588;28;20668;-49
2023/09/08 08:17:25;;;;;;;9.60;7.30;;;;;;;;;;5112637;28;20236;-48
2023/09/08 08:19:51;;;;;;;13.65;7.22;;;23.50;99.90;;;;;;5112200;28;20302;-49
2023/09/08 08:22:16;;;;;;;9.93;6.75;;;23.70;99.90;;;;;;5112443;28;20243;-48
2023/09/08 08:24:42;;;;;;;9.32;6.78;;;23.80;99.90;;;;;;5112191;28;20208;-48
2023/09/08 08:27:08;;;;;;;10.05;7.43;;;;;;;;;;5112234;28;20161;-48
2023/09/08 08:29:34;;;;;;;9.30;6.88;;;;;;;;;;5111925;28;20241;-47
2023/09/08 08:31:59;;;;;;;17.92;7.10;;;23.90;99.90;;;;;;5111884;28;20172;-48
2023/09/08 08:34:25;;;;;;;11.15;6.63;;;;;;;;;;5112068;28;20251;-48
2023/09/08 08:36:51;;;;;;;10.23;7.07;;;24.20;99.90;;;;;;5111847;28;20165;-48
2023/09/08 08:39:16;;;;;;;11.02;7.22;;;24.30;99.90;;;;;;5112136;28;20176;-45
2023/09/08 08:41:43;;;;;;;11.32;6.82;;;24.50;99.90;;;;;;5111804;28;20153;-48
2023/09/08 08:44:09;;;;;;;7.93;6.55;;;24.50;99.90;;;;;;5111408;28;20199;-47
2023/09/08 08:46:37;;;;;;;12.23;6.40;;;24.70;99.90;;;;;;5111777;28;20255;-45
2023/09/08 08:49:04;;;;;;;9.90;6.45;;;24.80;99.90;;;;;;5111498;28;20176;-46
2023/09/08 08:51:31;;;;;;;9.73;6.15;;;24.90;99.90;;;;;;5111912;28;20171;-46
2023/09/08 08:53:57;;;;;;;11.30;6.75;;;25.00;99.90;;;;;;5111324;28;20202;-46
2023/09/08 08:56:23;;;;;;;7.18;6.47;;;25.10;99.90;;;;;;5111345;28;20195;-44
2023/09/08 08:58:49;;;;;;;8.98;5.60;;;25.00;99.90;;;;;;5111900;28;20195;-45
2023/09/08 09:01:19;;;;;;;9.25;6.25;;;25.20;99.90;;;;;;5111796;28;20164;-43
2023/09/08 09:03:49;;;;;;;8.80;5.93;;;25.20;99.90;;;;;;5111856;28;20208;-45
2023/09/08 09:06:15;;;;;;;7.18;5.95;;;25.20;99.90;;;;;;5111927;28;20168;-44
2023/09/08 09:08:44;;;;;;;11.85;6.75;;;25.40;99.90;;;;;;5111976;28;20247;-46
2023/09/08 09:11:10;;;;;;;8.40;6.13;;;25.50;99.90;;;;;;5111984;28;20637;-45
2023/09/08 09:13:35;;;;;;;9.88;6.18;;;25.60;99.90;;;;;;5111904;28;20196;-45
2023/09/08 09:16:03;;;;;;;7.05;6.10;;;25.60;99.90;;;;;;5112003;28;20196;-45
2023/09/08 09:18:30;;;;;;;7.88;5.97;;;25.70;99.90;;;;;;5112157;28;20164;-45
2023/09/08 09:20:58;;;;;;;8.13;6.45;;;25.80;99.90;;;;;;5111961;28;20172;-46
2023/09/08 09:23:32;;;;;;;9.98;6.68;;;25.90;99.90;;;;;;5111859;28;20192;-46
2023/09/08 09:25:59;;;;;;;7.18;5.75;;;26.00;99.90;;;;;;5111897;28;20172;-45
2023/09/08 09:28:25;;;;;;;7.70;5.75;;;26.10;99.90;;;;;;5111817;28;20285;-45
2023/09/08 09:30:54;;;;;;;12.10;5.88;;;26.20;99.90;;;;;;5111683;28;20179;-45
2023/09/08 09:33:20;;;;;;;9.48;6.70;;;26.30;99.90;;;;;;5111991;28;20168;-45
2023/09/08 09:35:51;;;;;;;12.90;6.07;;;26.40;99.90;;;;;;5112093;28;20168;-46
2023/09/08 09:38:18;;;;;;;11.07;5.97;;;26.50;99.90;;;;;;5093624;28;20710;-46
2023/09/08 09:40:45;;;;;;;10.00;5.50;;;26.60;99.90;;;;;;5091536;28;20213;-45
2023/09/08 09:43:11;;;;;;;7.97;6.30;;;26.60;99.90;;;;;;5091434;28;20199;-45
2023/09/08 09:45:38;;;;;;;8.98;6.10;;;26.50;99.90;;;;;;5091080;28;20273;-47
2023/09/08 09:48:04;;;;;;;9.32;6.10;;;26.80;99.90;;;;;;5091271;28;20165;-46
2023/09/08 09:50:42;;;;;;;23.25;6.03;;;26.90;99.90;;;;;;5091580;28;20192;-45
2023/09/08 09:53:18;;;;;;;10.68;6.65;;;26.90;99.90;;;;;;5091172;28;20167;-46
2023/09/08 09:55:45;;;;;;;10.90;6.03;;;27.00;99.90;;;;;;5091605;28;20516;-46
2023/09/08 09:58:11;;;;;;;9.18;5.70;;;27.00;99.90;;;;;;5091177;28;20232;-46
2023/09/08 10:00:40;;;;;;;12.18;6.68;;;27.00;99.90;;;;;;5091410;28;20169;-45
2023/09/08 10:03:06;;;;;;;7.57;6.63;;;27.20;99.90;;;;;;5091264;28;20291;-46
2023/09/08 10:05:33;;;;;;;10.35;6.18;;;27.10;99.90;;;;;;5091172;28;20173;-46
2023/09/08 10:07:59;;;;;;;13.93;5.75;;;27.20;99.90;;;;;;5095062;28;20156;-48
2023/09/08 10:10:26;;;;;;;7.22;6.15;;;27.30;99.90;;;;;;5094952;28;20254;-48
2023/09/08 10:13:00;;;;;;;10.63;5.80;;;27.60;99.90;;;;;;5094944;28;20166;-49
2023/09/08 10:15:26;;;;;;;6.35;5.75;;;27.70;99.90;;;;;;5093542;28;20175;-48
2023/09/08 10:17:57;;;;;;;9.00;5.25;;;27.70;99.90;;;;;;5093416;28;20172;-48
2023/09/08 10:20:28;;;;;;;10.52;5.95;;;27.70;99.90;;;;;;5095084;28;20180;-47
2023/09/08 10:23:09;;;;;;;7.03;5.50;;;27.90;99.90;;;;;;5094586;28;20157;-48
2023/09/08 10:25:39;;;;;;;8.45;5.65;;;28.20;99.90;;;;;;5094913;28;20168;-48
2023/09/08 10:28:06;;;;;;;8.18;5.65;;;28.10;99.90;;;;;;5094819;28;20516;-48
2023/09/08 10:30:32;;;;;;;7.65;4.97;;;28.10;99.90;;;;;;5094627;28;20161;-48
2023/09/08 10:32:58;;;;;;;8.88;5.32;;;28.20;99.90;;;;;;5094497;28;20634;-48
2023/09/08 10:35:24;;;;;;;9.93;6.10;;;28.40;99.90;;;;;;5094534;28;20173;-48
2023/09/08 10:37:50;;;;;;;7.82;5.47;;;28.50;99.90;;;;;;5094502;28;20175;-48
2023/09/08 10:40:24;;;;;;;6.63;5.35;;;28.40;99.90;;;;;;5095004;28;20256;-47
2023/09/08 10:42:50;;;;;;;9.02;5.90;;;;;;;;;;5094180;28;20161;-47
2023/09/08 10:45:20;;;;;;;8.60;5.70;;;28.60;99.90;;;;;;5094639;28;20697;-47
2023/09/08 10:47:45;;;;;;;7.88;4.90;;;28.50;99.90;;;;;;5094880;28;20256;-49
2023/09/08 10:50:26;;;;;;;9.45;5.80;;;28.60;99.90;;;;;;5094184;28;20613;-46
2023/09/08 10:53:14;;;;;;;7.10;5.82;;;28.80;99.90;;;;;;5093981;28;20171;-47
2023/09/08 10:55:53;;;;;;;9.43;5.20;;;28.80;99.90;;;;;;5093979;28;20164;-47
2023/09/08 10:58:42;;;;;;;8.48;5.55;;;28.90;99.90;;;;;;5092701;28;20172;-46
2023/09/08 11:01:16;;;;;;;9.35;5.72;;;28.80;99.90;;;;;;5093959;28;20161;-47
2023/09/08 11:03:43;;;;;;;7.35;5.53;;;28.80;99.90;;;;;;5093565;28;20548;-49
2023/09/08 11:06:09;;;;;;;9.10;6.03;;;29.20;99.90;;;;;;5094139;28;20173;-48
2023/09/08 11:08:38;;;;;;;7.55;5.60;;;29.20;99.90;;;;;;5093814;28;20222;-49
2023/09/08 11:11:04;;;;;;;12.48;5.72;;;29.10;99.90;;;;;;5093758;28;20164;-49
2023/09/08 11:13:30;;;;;;;5.35;4.82;;;29.20;99.90;;;;;;5093580;28;20578;-46
2023/09/08 11:15:56;;;;;;;8.45;5.20;;;29.20;99.90;;;;;;5089224;28;20169;-46
2023/09/08 11:18:28;;;;;;;9.60;5.50;;;29.20;99.90;;;;;;5073046;28;20657;-46
2023/09/08 11:20:55;;;;;;;8.70;5.18;;;29.60;99.90;;;;;;5073239;28;20169;-45
2023/09/08 11:23:21;;;;;;;5.63;5.07;;;29.70;99.90;;;;;;5073232;28;20247;-46
2023/09/08 11:25:48;;;;;;;7.80;5.32;;;29.80;99.90;;;;;;5073928;28;20166;-46
2023/09/08 11:28:14;;;;;;;13.23;5.47;;;29.70;99.90;;;;;;5073805;28;20172;-46
2023/09/08 11:30:40;;;;;;;7.55;4.72;;;29.70;99.90;;;;;;5073303;28;20158;-49
2023/09/08 11:33:14;;;;;;;11.02;5.28;;;29.80;99.90;;;;;;5073092;28;20185;-47
2023/09/08 11:35:43;;;;;;;7.85;5.25;;;;;;;;;;5071591;28;20257;-47
2023/09/08 11:38:10;;;;;;;7.20;5.13;;;29.90;99.90;;;;;;5072589;28;20158;-47
2023/09/08 11:40:36;;;;;;;12.32;5.60;;;29.90;99.90;;;;;;5072852;28;20208;-48
2023/09/08 11:43:03;;;;;;;6.15;5.10;;;29.90;99.90;;;;;;5072683;28;20193;-46
2023/09/08 11:45:30;;;;;;;6.20;5.03;;;30.00;99.90;;;;;;5072686;28;20225;-48
2023/09/08 11:47:57;;;;;;;7.10;4.63;;;30.00;99.90;;;;;;5072669;28;20184;-45
2023/09/08 11:50:26;;;;;;;10.60;5.05;;;30.00;99.90;;;;;;5072526;28;20188;-46
2023/09/08 11:52:54;;;;;;;5.53;4.43;;;30.20;99.90;;;;;;5063866;28;20154;-47
2023/09/08 11:55:21;;;;;;;8.77;5.00;;;30.20;99.90;;;;;;5072423;28;20650;-47
2023/09/08 11:57:54;;;;;;;12.32;5.18;;;30.20;99.90;;;;;;5073106;28;20173;-49
2023/09/08 12:00:22;;;;;;;8.10;4.78;;;30.30;99.90;;;;;;5072847;28;20232;-48
2023/09/08 12:02:48;;;;;;;6.88;4.82;;;30.30;99.90;;;;;;5071453;28;20650;-47
2023/09/08 12:05:21;;;;;;;6.97;4.80;;;30.30;99.90;;;;;;5072651;28;20177;-47
2023/09/08 12:07:47;;;;;;;7.43;5.05;;;30.30;99.90;;;;;;5072796;28;20165;-49
2023/09/08 12:10:14;;;;;;;8.90;4.90;;;30.50;99.90;;;;;;5072202;28;20536;-48
2023/09/08 12:12:54;;;;;;;9.73;5.55;;;30.50;99.90;;;;;;5072139;28;20168;-48
2023/09/08 12:15:32;;;;;;;5.75;4.70;;;30.40;99.90;;;;;;5071744;28;20634;-48
2023/09/08 12:17:58;;;;;;;11.98;4.72;;;30.50;99.90;;;;;;5071950;28;20173;-49
2023/09/08 12:20:23;;;;;;;7.78;4.75;;;30.40;99.90;;;;;;5072001;28;20515;-48
2023/09/08 12:22:50;;;;;;;7.85;4.55;;;30.60;99.90;;;;;;5071789;28;20223;-48
2023/09/08 12:25:16;;;;;;;4.97;4.47;;;30.50;99.90;;;;;;5072079;28;20234;-48
2023/09/08 12:27:42;;;;;;;8.25;5.18;;;30.70;99.90;;;;;;5071786;28;20169;-49
2023/09/08 12:30:09;;;;;;;7.30;4.28;;;30.80;99.90;;;;;;5071353;28;20173;-48
2023/09/08 12:32:36;;;;;;;5.50;4.50;;;30.70;99.90;;;;;;5071411;28;20567;-49
2023/09/08 12:35:03;;;;;;;5.90;4.38;;;30.80;99.90;;;;;;5071705;28;20170;-46
2023/09/08 12:37:30;;;;;;;5.55;4.55;;;30.90;99.90;;;;;;5071527;28;20584;-49
2023/09/08 12:39:56;;;;;;;5.53;4.38;;;30.90;99.90;;;;;;5071586;28;20162;-49
2023/09/08 12:42:25;;;;;;;7.20;4.63;;;30.90;99.90;;;;;;5071172;28;20158;-49
2023/09/08 12:44:51;;;;;;;8.35;4.82;;;31.00;99.90;;;;;;5071230;28;20232;-47
2023/09/08 12:47:16;;;;;;;6.63;4.68;;;31.00;99.90;;;;;;5071624;28;20174;-46